Time;durP1;ratioP1;P1;durP2;ratioP2;P2;SDS_P1;SDS_P2;PMS_P1;PMS_P2;Temp;Humidity;BMP_temperature;BMP_pressure;BME280_temperature;BME280_humidity;BME280_pressure;Samples;Min_cycle;Max_cycle;Signal;HPM_P1;HPM_P2
2022/08/05 00:00:17;;;;;;;24.50;10.35;;;;;;;;;;5052236;28;20437;-75
2022/08/05 00:02:44;;;;;;;33.45;10.18;;;;;;;;;;5051816;28;20021;-76
2022/08/05 00:05:10;;;;;;;25.88;9.48;;;;;;;;;;5052197;28;20032;-75
2022/08/05 00:07:36;;;;;;;20.13;8.65;;;;;;;;;;5051071;28;20047;-75
2022/08/05 00:10:01;;;;;;;19.17;8.45;;;;;;;;;;5052514;28;20033;-75
2022/08/05 00:12:27;;;;;;;20.33;7.55;;;;;;;;;;5051820;28;20048;-75
2022/08/05 00:14:53;;;;;;;13.32;6.47;;;;;;;;;;5051972;28;20076;-75
2022/08/05 00:17:19;;;;;;;19.92;6.95;;;;;;;;;;5051572;28;20508;-76
2022/08/05 00:19:45;;;;;;;18.05;6.68;;;;;;;;;;5051046;28;20029;-75
2022/08/05 00:22:11;;;;;;;18.98;6.50;;;;;;;;;;5051744;28;20099;-76
2022/08/05 00:24:37;;;;;;;13.25;5.60;;;;;;;;;;5052632;28;20029;-75
2022/08/05 00:27:03;;;;;;;16.63;5.60;;;;;;;;;;5052489;28;20036;-75
2022/08/05 00:29:29;;;;;;;18.70;5.68;;;;;;;;;;5052573;28;20037;-76
2022/08/05 00:31:55;;;;;;;16.00;5.10;;;;;;;;;;5036096;28;20021;-74
2022/08/05 00:34:21;;;;;;;12.18;4.15;;;;;;;;;;5053710;28;20025;-74
2022/08/05 00:36:47;;;;;;;7.85;3.70;;;;;;;;;;5053581;28;20032;-76
2022/08/05 00:39:13;;;;;;;9.55;3.95;;;;;;;;;;5051977;28;20029;-76
2022/08/05 00:41:39;;;;;;;10.68;3.65;;;;;;;;;;5051752;28;20060;-75
2022/08/05 00:44:05;;;;;;;11.27;3.85;;;;;;;;;;5052600;28;20017;-74
2022/08/05 00:46:31;;;;;;;16.80;4.45;;;;;;;;;;5051413;28;20025;-74
2022/08/05 00:48:57;;;;;;;10.40;4.00;;;;;;;;;;5051613;28;20440;-74
2022/08/05 00:51:23;;;;;;;10.55;3.72;;;;;;;;;;5051835;28;20439;-75
2022/08/05 00:53:49;;;;;;;12.05;3.45;;;;;;;;;;5053302;28;20056;-75
2022/08/05 00:56:15;;;;;;;13.02;3.92;;;;;;;;;;5052684;28;20021;-75
2022/08/05 00:58:41;;;;;;;8.05;2.92;;;;;;;;;;5050942;28;20118;-75
2022/08/05 01:01:09;;;;;;;13.38;3.55;;;;;;;;;;5050739;28;20029;-76
2022/08/05 01:03:35;;;;;;;6.97;3.30;;;;;;;;;;5052312;28;20112;-75
2022/08/05 01:06:01;;;;;;;12.80;4.00;;;;;;;;;;5052535;28;20057;-75
2022/08/05 01:08:27;;;;;;;16.13;3.75;;;;;;;;;;5051419;28;20054;-74
2022/08/05 01:10:58;;;;;;;12.00;3.42;;;;;;;;;;5051249;28;20025;-75
2022/08/05 01:13:33;;;;;;;7.32;2.97;;;;;;;;;;5053604;28;20021;-75
2022/08/05 01:16:01;;;;;;;10.23;3.22;;;;;;;;;;5052732;28;20056;-75
2022/08/05 01:18:36;;;;;;;9.00;2.88;;;;;;;;;;5056119;28;20021;-75
2022/08/05 01:21:26;;;;;;;8.65;3.00;;;;;;;;;;5055986;28;20029;-75
2022/08/05 01:24:10;;;;;;;10.85;3.03;;;;;;;;;;5059752;28;20071;-75
2022/08/05 01:26:43;;;;;;;9.93;3.83;;;;;;;;;;5042047;28;20017;-74
2022/08/05 01:29:09;;;;;;;11.77;3.30;;;;;;;;;;5041680;28;20036;-74
2022/08/05 01:31:41;;;;;;;10.38;3.00;;;;;;;;;;5057255;28;20025;-74
2022/08/05 01:34:09;;;;;;;11.20;2.95;;;;;;;;;;5056527;28;20107;-75
2022/08/05 01:36:40;;;;;;;8.98;2.60;;;;;;;;;;5055921;28;20071;-75
2022/08/05 01:39:06;;;;;;;7.35;2.42;;;;;;;;;;5056896;28;20049;-74
2022/08/05 01:41:34;;;;;;;7.25;2.72;;;;;;;;;;5056832;28;20036;-74
2022/08/05 01:44:00;;;;;;;8.23;2.85;;;;;;;;;;5062424;28;20116;-74
2022/08/05 01:46:27;;;;;;;6.97;2.88;;;;;;;;;;5062290;28;20497;-75
2022/08/05 01:48:54;;;;;;;9.48;2.63;;;;;;;;;;5063494;28;20025;-74
2022/08/05 01:51:21;;;;;;;10.35;2.95;;;;;;;;;;5064251;28;20047;-78
2022/08/05 01:53:49;;;;;;;8.35;3.05;;;;;;;;;;5062956;28;20032;-75
2022/08/05 01:56:15;;;;;;;7.30;2.67;;;;;;;;;;5062121;28;20028;-75
2022/08/05 01:58:42;;;;;;;13.57;3.33;;;;;;;;;;5059835;28;20169;-76
2022/08/05 02:01:10;;;;;;;9.43;2.50;;;;;;;;;;5056619;28;20024;-74
2022/08/05 02:03:37;;;;;;;9.27;2.60;;;;;;;;;;5057639;28;20040;-75
2022/08/05 02:06:05;;;;;;;8.45;2.85;;;;;;;;;;5057732;28;20021;-75
2022/08/05 02:08:32;;;;;;;7.05;2.50;;;;;;;;;;5039203;28;20424;-75
2022/08/05 02:11:07;;;;;;;7.55;2.45;;;;;;;;;;5056561;28;20033;-74
2022/08/05 02:13:38;;;;;;;12.57;3.35;;;;;;;;;;5059850;28;20056;-74
2022/08/05 02:16:07;;;;;;;7.68;2.60;;;;;;;;;;5057609;28;20017;-75
2022/08/05 02:18:40;;;;;;;7.40;2.50;;;;;;;;;;5056739;28;20428;-74
2022/08/05 02:21:11;;;;;;;13.55;2.78;;;;;;;;;;5063066;28;20025;-75
2022/08/05 02:23:39;;;;;;;6.90;2.30;;;;;;;;;;5061831;28;20025;-75
2022/08/05 02:26:07;;;;;;;9.07;2.90;;;;;;;;;;5061537;28;20047;-75
2022/08/05 02:28:34;;;;;;;6.00;2.30;;;;;;;;;;5061249;28;20047;-77
2022/08/05 02:31:01;;;;;;;17.23;6.20;;;;;;;;;;5042676;28;20446;-78
2022/08/05 02:33:29;;;;;;;10.63;3.20;;;;;;;;;;5061232;28;20100;-77
2022/08/05 02:35:57;;;;;;;9.57;2.80;;;;;;;;;;5061116;28;20052;-77
2022/08/05 02:38:23;;;;;;;21.27;6.35;;;;;;;;;;5057879;28;20029;-78
2022/08/05 02:40:49;;;;;;;15.00;5.40;;;;;;;;;;5057840;28;20029;-77
2022/08/05 02:43:16;;;;;;;13.20;3.47;;;;;;;;;;5056877;28;20445;-76
2022/08/05 02:45:42;;;;;;;14.57;3.15;;;;;;;;;;5058319;28;20029;-77
2022/08/05 02:48:09;;;;;;;11.55;3.20;;;;;;;;;;5059648;28;20060;-77
2022/08/05 02:50:36;;;;;;;14.60;3.80;;;;;;;;;;5056359;28;20381;-78
2022/08/05 02:53:02;;;;;;;9.27;2.88;;;;;;;;;;5053963;28;20053;-77
2022/08/05 02:55:29;;;;;;;7.15;2.72;;;;;;;;;;5059017;28;20031;-77
2022/08/05 02:57:56;;;;;;;8.27;2.72;;;;;;;;;;5055292;28;20150;-77
2022/08/05 03:00:22;;;;;;;14.40;3.35;;;;;;;;;;5055148;28;20025;-77
2022/08/05 03:02:48;;;;;;;9.02;3.35;;;;;;;;;;5056042;28;20412;-77
2022/08/05 03:05:14;;;;;;;10.50;3.40;;;;;;;;;;5055322;28;20032;-78
2022/08/05 03:07:41;;;;;;;14.90;4.80;;;;;;;;;;5054248;28;20032;-78
2022/08/05 03:10:08;;;;;;;9.63;3.15;;;;;;;;;;5054022;28;20478;-77
2022/08/05 03:12:37;;;;;;;10.73;3.05;;;;;;;;;;5056776;28;20032;-78
2022/08/05 03:15:05;;;;;;;9.65;3.30;;;;;;;;;;5059128;28;20021;-78
2022/08/05 03:17:31;;;;;;;12.13;3.70;;;;;;;;;;5062193;28;20031;-78
2022/08/05 03:19:58;;;;;;;11.90;3.45;;;;;;;;;;5063017;28;20065;-77
2022/08/05 03:22:24;;;;;;;9.07;3.05;;;;;;;;;;5061905;28;20021;-77
2022/08/05 03:24:50;;;;;;;10.00;3.10;;;;;;;;;;5064836;28;20025;-77
2022/08/05 03:27:16;;;;;;;9.38;3.08;;;;;;;;;;5063350;28;20032;-78
2022/08/05 03:29:42;;;;;;;12.55;3.38;;;;;;;;;;5103288;22;20048;-72
2022/08/05 03:32:08;;;;;;;8.85;3.65;;;;;;;;;;5093829;28;20077;-72
2022/08/05 03:34:35;;;;;;;15.85;3.70;;;;;;;;;;5093296;28;20016;-73
2022/08/05 03:37:01;;;;;;;11.50;4.30;;;;;;;;;;5091988;28;20031;-73
2022/08/05 03:39:27;;;;;;;12.75;3.50;;;;;;;;;;5093430;28;20102;-73
2022/08/05 03:41:53;;;;;;;10.07;4.82;;;;;;;;;;5092963;28;20103;-72
2022/08/05 03:44:19;;;;;;;12.15;4.03;;;;;;;;;;5093585;28;20139;-72
2022/08/05 03:46:45;;;;;;;7.10;3.08;;;;;;;;;;5093057;28;20032;-73
2022/08/05 03:49:11;;;;;;;12.93;3.70;;;;;;;;;;5092551;28;20036;-74
2022/08/05 03:51:50;;;;;;;8.77;3.28;;;;;;;;;;5092755;28;20020;-74
2022/08/05 03:54:23;;;;;;;6.35;3.42;;;;;;;;;;5092920;28;20084;-74
2022/08/05 03:56:49;;;;;;;7.65;3.80;;;;;;;;;;5093039;28;20071;-73
2022/08/05 03:59:27;;;;;;;13.32;3.65;;;;;;;;;;5092863;28;20535;-72
2022/08/05 04:01:55;;;;;;;11.18;3.95;;;;;;;;;;5092861;28;20137;-73
2022/08/05 04:04:21;;;;;;;11.93;3.47;;;;;;;;;;5092667;28;20541;-72
2022/08/05 04:06:47;;;;;;;11.68;3.85;;;;;;;;;;5093564;28;20115;-72
2022/08/05 04:09:14;;;;;;;13.63;3.28;;;;;;;;;;5093792;28;20032;-74
2022/08/05 04:11:40;;;;;;;8.57;3.28;;;;;;;;;;5093617;28;20408;-73
2022/08/05 04:14:06;;;;;;;14.45;3.90;;;;;;;;;;5093717;28;20024;-73
2022/08/05 04:16:34;;;;;;;12.45;4.65;;;;;;;;;;5093174;28;20095;-74
2022/08/05 04:19:00;;;;;;;6.25;3.17;;;;;;;;;;5093231;28;20032;-73
2022/08/05 04:21:26;;;;;;;8.65;3.47;;;;;;;;;;5093168;28;20072;-74
2022/08/05 04:23:52;;;;;;;10.98;4.03;;;;;;;;;;5092740;28;20020;-74
2022/08/05 04:26:18;;;;;;;13.60;3.88;;;;;;;;;;5092141;28;20376;-73
2022/08/05 04:28:45;;;;;;;11.48;3.40;;;;;;;;;;5093073;28;20032;-76
2022/08/05 04:31:11;;;;;;;10.43;3.55;;;;;;;;;;5092215;28;20024;-74
2022/08/05 04:33:36;;;;;;;10.57;3.38;;;;;;;;;;5092188;28;20034;-74
2022/08/05 04:36:02;;;;;;;9.38;3.28;;;;;;;;;;5073680;28;20024;-73
2022/08/05 04:38:28;;;;;;;8.27;3.45;;;;;;;;;;5092515;28;20024;-74
2022/08/05 04:40:54;;;;;;;8.52;3.70;;;;;;;;;;5094602;28;20020;-74
2022/08/05 04:43:20;;;;;;;8.00;3.40;;;;;;;;;;5073832;28;20027;-71
2022/08/05 04:45:46;;;;;;;11.23;3.65;;;;;;;;;;5092239;28;20095;-72
2022/08/05 04:48:13;;;;;;;9.98;3.88;;;;;;;;;;5091970;28;20070;-73
2022/08/05 04:50:40;;;;;;;15.60;4.90;;;;;;;;;;5092243;28;20034;-72
2022/08/05 04:53:07;;;;;;;8.48;3.58;;;;;;;;;;5093221;28;20123;-71
2022/08/05 04:55:33;;;;;;;10.70;3.60;;;;;;;;;;5094843;28;20547;-72
2022/08/05 04:57:59;;;;;;;16.08;4.03;;;;;;;;;;5094688;28;20024;-72
2022/08/05 05:00:25;;;;;;;13.52;4.05;;;;;;;;;;5093432;28;20035;-72
2022/08/05 05:02:51;;;;;;;12.07;3.67;;;;;;;;;;5093649;28;20024;-73
2022/08/05 05:05:17;;;;;;;11.30;4.25;;;;;;;;;;5094784;28;20133;-73
2022/08/05 05:07:43;;;;;;;12.55;4.07;;;;;;;;;;5092575;28;20472;-72
2022/08/05 05:10:09;;;;;;;10.20;3.70;;;;;;;;;;5091720;28;20043;-72
2022/08/05 05:12:35;;;;;;;13.32;4.28;;;;;;;;;;5091924;28;20034;-73
2022/08/05 05:15:01;;;;;;;12.60;4.32;;;;;;;;;;5091892;28;20031;-72
2022/08/05 05:17:27;;;;;;;9.90;3.70;;;;;;;;;;5091485;28;20028;-72
2022/08/05 05:19:54;;;;;;;11.13;4.07;;;;;;;;;;5092235;28;20427;-74
2022/08/05 05:22:20;;;;;;;11.05;4.07;;;;;;;;;;5092155;28;20024;-72
2022/08/05 05:24:45;;;;;;;8.32;3.58;;;;;;;;;;5091879;28;20107;-72
2022/08/05 05:27:11;;;;;;;11.77;3.85;;;;;;;;;;5092056;28;20063;-72
2022/08/05 05:29:37;;;;;;;10.20;4.13;;;;;;;;;;5091977;28;20032;-71
2022/08/05 05:32:03;;;;;;;15.45;4.93;;;;;;;;;;5092317;28;20024;-72
2022/08/05 05:34:30;;;;;;;13.68;4.03;;;;;;;;;;5091855;28;20028;-72
2022/08/05 05:36:56;;;;;;;14.30;4.22;;;;;;;;;;5094584;28;20366;-72
2022/08/05 05:39:22;;;;;;;12.88;4.43;;;;;;;;;;5091504;28;20034;-72
2022/08/05 05:41:48;;;;;;;11.77;4.20;;;;;;;;;;5092007;28;20024;-74
2022/08/05 05:44:13;;;;;;;10.45;3.42;;;;;;;;;;5091995;28;20046;-73
2022/08/05 05:46:39;;;;;;;12.95;4.32;;;;;;;;;;5091742;28;20033;-72
2022/08/05 05:49:05;;;;;;;13.27;3.95;;;;;;;;;;5093239;28;20024;-72
2022/08/05 05:51:31;;;;;;;14.68;3.95;;;;;;;;;;5092193;28;20050;-72
2022/08/05 05:53:58;;;;;;;15.20;5.85;;;;;;;;;;5091427;28;20024;-72
2022/08/05 05:56:24;;;;;;;15.32;5.07;;;;;;;;;;5091403;28;20020;-73
2022/08/05 05:58:50;;;;;;;10.48;4.72;;;;;;;;;;5074267;28;20024;-73
2022/08/05 06:01:16;;;;;;;12.07;4.10;;;;;;;;;;5096319;28;20027;-71
2022/08/05 06:03:42;;;;;;;10.90;3.67;;;;;;;;;;5076839;28;20491;-71
2022/08/05 06:06:08;;;;;;;11.50;4.25;;;;;;;;;;5095357;28;20024;-72
2022/08/05 06:08:34;;;;;;;8.25;3.80;;;;;;;;;;5102433;28;20024;-75
2022/08/05 06:11:00;;;;;;;13.52;3.88;;;;;;;;;;5104551;28;20070;-73
2022/08/05 06:13:26;;;;;;;13.68;4.30;;;;;;;;;;5095579;28;20075;-72
2022/08/05 06:15:52;;;;;;;9.07;3.40;;;;;;;;;;5095642;28;20029;-73
2022/08/05 06:18:18;;;;;;;16.38;4.88;;;;;;;;;;5096873;28;20036;-73
2022/08/05 06:20:44;;;;;;;12.07;4.20;;;;;;;;;;5095680;28;20480;-72
2022/08/05 06:23:10;;;;;;;10.65;3.97;;;;;;;;;;5095501;28;20442;-72
2022/08/05 06:25:36;;;;;;;6.50;3.25;;;;;;;;;;5095317;28;20028;-74
2022/08/05 06:28:02;;;;;;;11.02;4.32;;;;;;;;;;5094895;28;20047;-72
2022/08/05 06:30:28;;;;;;;11.27;3.92;;;;;;;;;;5094837;28;20059;-72
2022/08/05 06:32:54;;;;;;;13.77;4.70;;;;;;;;;;5096935;28;20020;-72
2022/08/05 06:35:20;;;;;;;15.38;4.40;;;;;;;;;;5095047;28;20050;-73
2022/08/05 06:37:46;;;;;;;8.93;3.70;;;;;;;;;;5094632;28;20496;-72
2022/08/05 06:40:12;;;;;;;11.60;3.92;;;;;;;;;;5078495;28;20024;-71
2022/08/05 06:42:38;;;;;;;12.70;3.50;;;;;;;;;;5096401;28;20440;-73
2022/08/05 06:45:04;;;;;;;11.32;4.68;;;;;;;;;;5094458;28;20031;-73
2022/08/05 06:47:30;;;;;;;11.80;3.72;;;;;;;;;;5094350;28;20031;-72
2022/08/05 06:49:56;;;;;;;8.13;3.45;;;;;;;;;;5094381;28;20381;-72
2022/08/05 06:52:22;;;;;;;9.65;3.00;;;;;;;;;;5095902;28;20385;-72
2022/08/05 06:54:48;;;;;;;13.82;3.20;;;;;;;;;;5097942;28;20471;-72
2022/08/05 06:57:17;;;;;;;9.35;3.55;;;;;;;;;;5082335;28;20020;-74
2022/08/05 06:59:42;;;;;;;8.13;3.30;;;;;;;;;;5099622;28;20020;-73
2022/08/05 07:02:09;;;;;;;10.05;3.10;;;;;;;;;;5098030;28;20107;-74
2022/08/05 07:04:35;;;;;;;7.30;2.70;;;;;;;;;;5077253;28;20062;-72
2022/08/05 07:07:01;;;;;;;13.20;3.50;;;;;;;;;;5095992;28;20031;-72
2022/08/05 07:09:27;;;;;;;10.95;3.13;;;;;;;;;;5096852;28;20110;-72
2022/08/05 07:11:54;;;;;;;18.42;4.10;;;;;;;;;;5095826;28;20035;-71
2022/08/05 07:17:05;;;;;;;6.28;2.25;;;;;;;;;;5094974;28;20073;-72
2022/08/05 07:19:31;;;;;;;13.05;3.60;;;;;;;;;;5093803;28;20103;-73
2022/08/05 07:21:57;;;;;;;11.05;2.65;;;;;;;;;;5095863;28;20049;-73
2022/08/05 07:24:24;;;;;;;18.15;4.32;;;;;;;;;;5094842;28;20493;-73
2022/08/05 07:26:50;;;;;;;23.50;4.97;;;;;;;;;;5093157;28;20056;-71
2022/08/05 07:29:16;;;;;;;22.48;5.93;;;;;;;;;;5093143;28;20036;-72
2022/08/05 07:31:42;;;;;;;19.98;4.03;;;;;;;;;;5093310;28;20027;-71
2022/08/05 07:34:08;;;;;;;11.18;2.95;;;;;;;;;;5079338;28;20424;-71
2022/08/05 07:36:34;;;;;;;15.82;3.13;;;;;;;;;;5095313;28;20034;-72
2022/08/05 07:39:01;;;;;;;17.33;3.42;;;;;;;;;;5093103;28;20111;-72
2022/08/05 07:41:27;;;;;;;24.80;11.93;;;;;;;;;;5093153;28;20126;-72
2022/08/05 07:43:54;;;;;;;23.70;10.32;;;;;;;;;;5094061;28;20012;-72
2022/08/05 07:46:20;;;;;;;12.80;4.28;;;;;;;;;;5074500;28;20511;-73
2022/08/05 07:48:46;;;;;;;14.90;3.35;;;;;;;;;;5092976;28;20055;-72
2022/08/05 07:51:14;;;;;;;15.63;3.20;;;;;;;;;;5092597;28;20096;-71
2022/08/05 07:53:40;;;;;;;13.60;3.45;;;;;;;;;;5092897;28;20034;-72
2022/08/05 07:56:06;;;;;;;17.73;3.92;;;;;;;;;;5092359;28;20065;-72
2022/08/05 07:58:32;;;;;;;17.33;3.20;;;;;;;;;;5076462;28;20024;-73
2022/08/05 08:00:58;;;;;;;14.88;3.75;;;;;;;;;;5095297;28;20110;-72
2022/08/05 08:03:24;;;;;;;12.10;3.28;;;;;;;;;;5076351;28;20031;-72
2022/08/05 08:05:51;;;;;;;12.10;3.08;;;;;;;;;;5093069;28;20587;-72
2022/08/05 08:08:17;;;;;;;12.57;3.17;;;;;;;;;;5095092;28;20024;-72
2022/08/05 08:10:43;;;;;;;14.00;3.80;;;;;;;;;;5096484;28;20020;-71
2022/08/05 08:13:11;;;;;;;8.80;2.63;;;;;;;;;;5092699;28;20020;-72
2022/08/05 08:15:37;;;;;;;8.43;2.42;;;;;;;;;;5093031;28;20085;-71
2022/08/05 08:18:03;;;;;;;10.80;2.28;;;;;;;;;;5093065;28;20020;-71
2022/08/05 08:20:29;;;;;;;9.35;2.42;;;;;;;;;;5092561;28;20044;-72
2022/08/05 08:22:56;;;;;;;8.70;2.33;;;;;;;;;;5091979;28;20043;-72
2022/08/05 08:25:23;;;;;;;7.55;2.20;;;;;;;;;;5092184;28;20074;-72
2022/08/05 08:27:49;;;;;;;9.80;2.67;;;;;;;;;;5092168;28;20530;-71
2022/08/05 08:30:15;;;;;;;8.85;2.85;;;;;;;;;;5091999;28;20028;-72
2022/08/05 08:32:41;;;;;;;32.95;13.07;;;;;;;;;;5092961;28;20031;-71
2022/08/05 08:35:07;;;;;;;19.08;8.45;;;;;;;;;;5074202;28;20506;-72
2022/08/05 08:37:33;;;;;;;23.00;8.45;;;;;;;;;;5092190;28;20116;-73
2022/08/05 08:40:00;;;;;;;29.10;9.60;;;;;;;;;;5094420;28;20035;-72
2022/08/05 08:42:26;;;;;;;52.20;10.90;;;;;;;;;;5090809;28;20067;-70
2022/08/05 08:44:53;;;;;;;36.15;8.63;;;;;;;;;;5093132;28;20038;-72
2022/08/05 08:47:22;;;;;;;35.85;9.95;;;;;;;;;;5092186;28;20396;-72
2022/08/05 08:49:51;;;;;;;30.45;6.82;;;;;;;;;;5094585;28;20028;-71
2022/08/05 08:52:19;;;;;;;25.45;7.25;;;;;;;;;;5092328;28;20020;-72
2022/08/05 08:54:46;;;;;;;46.92;14.35;;;;;;;;;;5092184;28;20029;-71
2022/08/05 08:57:12;;;;;;;29.23;10.63;;;;;;;;;;5091822;28;20024;-71
2022/08/05 08:59:38;;;;;;;34.65;11.90;;;;;;;;;;5092082;28;20054;-72
2022/08/05 09:02:06;;;;;;;24.80;7.80;;;;;;;;;;5092171;28;20473;-71
2022/08/05 09:04:36;;;;;;;19.67;5.82;;;;;;;;;;5091740;28;20107;-71
2022/08/05 09:07:03;;;;;;;12.05;3.03;;;;;;;;;;5091060;28;20020;-72
2022/08/05 09:09:29;;;;;;;12.27;3.80;;;;;;;;;;5091000;28;20024;-73
2022/08/05 09:11:55;;;;;;;11.15;3.00;;;;;;;;;;5091623;28;20027;-72
2022/08/05 09:14:22;;;;;;;12.32;3.17;;;;;;;;;;5091720;28;20055;-72
2022/08/05 09:16:48;;;;;;;8.10;2.83;;;;;;;;;;5091673;28;20023;-72
2022/08/05 09:19:14;;;;;;;11.45;3.10;;;;;;;;;;5092190;28;20033;-71
2022/08/05 09:21:40;;;;;;;9.68;2.60;;;;;;;;;;5091846;28;20099;-72
2022/08/05 09:24:07;;;;;;;11.90;4.22;;;;;;;;;;5092250;28;20425;-73
2022/08/05 09:26:33;;;;;;;11.65;3.00;;;;;;;;;;5095196;28;20028;-74
2022/08/05 09:29:03;;;;;;;7.30;2.80;;;;;;;;;;5120265;22;20022;-76
2022/08/05 09:31:29;;;;;;;12.98;2.25;;;;;;;;;;5057271;28;20036;-77
2022/08/05 09:33:58;;;;;;;15.73;4.97;;;;;;;;;;5058219;28;20043;-75
2022/08/05 09:36:38;;;;;;;10.60;2.63;;;;;;;;;;5067732;28;20021;-76
2022/08/05 09:39:05;;;;;;;12.70;3.13;;;;;;;;;;5050957;28;20029;-76
2022/08/05 09:41:31;;;;;;;51.83;22.95;;;;;;;;;;5050360;28;20450;-74
2022/08/05 09:43:58;;;;;;;12.75;3.35;;;;;;;;;;5068392;28;20408;-74
2022/08/05 09:46:31;;;;;;;8.68;2.10;;;;;;;;;;5054192;28;20032;-75
2022/08/05 09:48:58;;;;;;;9.35;2.75;;;;;;;;;;5048629;28;20076;-75
2022/08/05 09:51:31;;;;;;;10.13;2.42;;;;;;;;;;5047397;28;20029;-75
2022/08/05 09:53:57;;;;;;;10.17;3.60;;;;;;;;;;5045913;28;20080;-75
2022/08/05 09:56:25;;;;;;;6.95;2.88;;;;;;;;;;5046904;28;20025;-76
2022/08/05 09:58:58;;;;;;;9.98;2.60;;;;;;;;;;5074596;28;20029;-75
2022/08/05 10:01:24;;;;;;;8.27;2.45;;;;;;;;;;5055778;28;20066;-75
2022/08/05 10:03:58;;;;;;;10.00;2.47;;;;;;;;;;5048602;28;20186;-76
2022/08/05 10:06:25;;;;;;;7.75;2.42;;;;;;;;;;5048791;28;20044;-75
2022/08/05 10:08:51;;;;;;;9.30;2.90;;;;;;;;;;5047674;28;20029;-76
2022/08/05 10:11:17;;;;;;;8.00;2.53;;;;;;;;;;5064475;28;20023;-75
2022/08/05 10:13:43;;;;;;;12.00;2.60;;;;;;;;;;5045175;28;20032;-76
2022/08/05 10:16:29;;;;;;;7.85;2.50;;;;;;;;;;5055350;28;20112;-74
2022/08/05 10:18:56;;;;;;;8.18;2.30;;;;;;;;;;5046971;28;20029;-75
2022/08/05 10:21:22;;;;;;;10.13;2.33;;;;;;;;;;5049173;28;20108;-75
2022/08/05 10:23:49;;;;;;;8.63;2.60;;;;;;;;;;5048963;28;20087;-75
2022/08/05 10:26:15;;;;;;;9.60;2.53;;;;;;;;;;5047803;28;20051;-75
2022/08/05 10:28:42;;;;;;;7.18;2.95;;;;;;;;;;5052788;28;20036;-75
2022/08/05 10:31:11;;;;;;;7.75;2.72;;;;;;;;;;5032262;28;20040;-75
2022/08/05 10:33:43;;;;;;;8.18;2.97;;;;;;;;;;5045782;28;20031;-75
2022/08/05 10:36:09;;;;;;;7.97;2.60;;;;;;;;;;5046147;28;20028;-76
2022/08/05 10:38:36;;;;;;;9.50;2.90;;;;;;;;;;5047496;28;20056;-76
2022/08/05 10:41:03;;;;;;;10.55;3.33;;;;;;;;;;5063871;28;20028;-74
2022/08/05 10:43:50;;;;;;;11.18;2.80;;;;;;;;;;5052186;28;20029;-75
2022/08/05 10:46:20;;;;;;;6.07;2.30;;;;;;;;;;5054980;28;20024;-75
2022/08/05 10:48:46;;;;;;;7.60;2.70;;;;;;;;;;5056018;28;20021;-76
2022/08/05 10:51:22;;;;;;;8.18;3.10;;;;;;;;;;5074377;28;20029;-75
2022/08/05 10:53:53;;;;;;;12.45;3.50;;;;;;;;;;5078805;28;20042;-75
2022/08/05 10:56:24;;;;;;;10.75;3.10;;;;;;;;;;5073032;28;20025;-75
2022/08/05 10:58:53;;;;;;;7.43;2.97;;;;;;;;;;5050193;28;20048;-75
2022/08/05 11:01:29;;;;;;;15.45;3.90;;;;;;;;;;5062411;28;20475;-75
2022/08/05 11:03:59;;;;;;;8.77;2.88;;;;;;;;;;5065804;28;20021;-75
2022/08/05 11:06:25;;;;;;;8.25;2.60;;;;;;;;;;5078727;28;20032;-74
2022/08/05 11:09:11;;;;;;;10.50;2.85;;;;;;;;;;5078982;28;20025;-75
2022/08/05 11:11:37;;;;;;;7.43;2.20;;;;;;;;;;5078469;28;20041;-76
2022/08/05 11:14:03;;;;;;;8.93;2.50;;;;;;;;;;5078809;28;20009;-75
2022/08/05 11:16:29;;;;;;;13.18;2.60;;;;;;;;;;5075528;28;20053;-75
2022/08/05 11:19:14;;;;;;;7.80;2.50;;;;;;;;;;5045468;28;20032;-75
2022/08/05 11:21:40;;;;;;;7.38;2.33;;;;;;;;;;5070462;28;20029;-75
2022/08/05 11:24:07;;;;;;;7.38;2.05;;;;;;;;;;5052830;28;20029;-75
2022/08/05 11:26:34;;;;;;;8.10;2.80;;;;;;;;;;5070010;28;20083;-76
2022/08/05 11:29:03;;;;;;;9.32;2.80;;;;;;;;;;5064059;28;20073;-76
2022/08/05 11:31:31;;;;;;;7.10;2.55;;;;;;;;;;5052893;28;20020;-75
2022/08/05 11:33:58;;;;;;;10.32;3.75;;;;;;;;;;5072564;28;20020;-75
2022/08/05 11:36:41;;;;;;;6.68;2.70;;;;;;;;;;5076174;28;20013;-75
2022/08/05 11:39:07;;;;;;;8.63;2.70;;;;;;;;;;5064524;28;20033;-76
2022/08/05 11:41:34;;;;;;;9.68;2.58;;;;;;;;;;5061891;28;20025;-75
2022/08/05 11:44:02;;;;;;;9.20;2.40;;;;;;;;;;5044360;28;20032;-75
2022/08/05 11:46:34;;;;;;;7.53;2.40;;;;;;;;;;5060958;28;20028;-76
2022/08/05 11:49:00;;;;;;;7.72;2.40;;;;;;;;;;5062105;28;20048;-76
2022/08/05 11:51:28;;;;;;;5.20;2.53;;;;;;;;;;5062342;28;20108;-75
2022/08/05 11:53:54;;;;;;;7.57;2.20;;;;;;;;;;5071709;28;20025;-75
2022/08/05 11:56:21;;;;;;;15.43;7.03;;;;;;;;;;5065057;28;20509;-75
2022/08/05 11:58:47;;;;;;;19.80;7.38;;;;;;;;;;5070909;28;20029;-76
2022/08/05 12:01:16;;;;;;;9.45;3.92;;;;;;;;;;5070304;28;20017;-75
2022/08/05 12:03:42;;;;;;;10.70;3.67;;;;;;;;;;5070186;28;20060;-76
2022/08/05 12:06:09;;;;;;;12.68;3.00;;;;;;;;;;5071580;28;20033;-75
2022/08/05 12:08:43;;;;;;;7.88;2.60;;;;;;;;;;5068187;28;20385;-75
2022/08/05 12:11:09;;;;;;;21.67;13.25;;;;;;;;;;5068480;28;20032;-75
2022/08/05 12:13:36;;;;;;;8.13;2.47;;;;;;;;;;5070715;28;20017;-76
2022/08/05 12:16:03;;;;;;;10.25;2.90;;;;;;;;;;5053564;28;20040;-74
2022/08/05 12:18:33;;;;;;;16.58;6.95;;;;;;;;;;5051104;28;20156;-76
2022/08/05 12:21:31;;;;;;;9.50;2.17;;;;;;;;;;5045858;28;20079;-75
2022/08/05 12:23:57;;;;;;;6.55;1.80;;;;;;;;;;5029508;28;20037;-75
2022/08/05 12:26:23;;;;;;;6.22;1.77;;;;;;;;;;5062565;28;20017;-77
2022/08/05 12:28:49;;;;;;;8.25;3.67;;;;;;;;;;5051109;28;20024;-75
2022/08/05 12:31:16;;;;;;;6.57;2.40;;;;;;;;;;5067812;28;20106;-76
2022/08/05 12:33:43;;;;;;;8.02;2.25;;;;;;;;;;5064430;28;20481;-76
2022/08/05 12:36:10;;;;;;;13.45;4.97;;;;;;;;;;5061093;28;20097;-76
2022/08/05 12:38:37;;;;;;;6.43;2.42;;;;;;;;;;5047793;28;20021;-75
2022/08/05 12:41:06;;;;;;;4.63;1.92;;;;;;;;;;5066216;28;20024;-75
2022/08/05 12:43:32;;;;;;;8.57;1.80;;;;;;;;;;5072003;28;20029;-74
2022/08/05 12:45:58;;;;;;;7.82;1.48;;;;;;;;;;5068517;28;20025;-76
2022/08/05 12:48:24;;;;;;;3.67;1.30;;;;;;;;;;5061336;28;20159;-76
2022/08/05 12:51:09;;;;;;;6.63;1.60;;;;;;;;;;5061505;28;20040;-76
2022/08/05 12:53:40;;;;;;;9.10;2.67;;;;;;;;;;5061740;28;20023;-75
2022/08/05 12:56:16;;;;;;;28.85;17.35;;;;;;;;;;5046926;28;20036;-76
2022/08/05 12:58:42;;;;;;;7.57;3.47;;;;;;;;;;5063008;28;20025;-75
2022/08/05 13:01:08;;;;;;;5.25;2.05;;;;;;;;;;5060005;28;20031;-77
2022/08/05 13:03:38;;;;;;;8.88;2.35;;;;;;;;;;5055693;28;20388;-75
2022/08/05 13:06:06;;;;;;;4.45;2.13;;;;;;;;;;5065950;28;20031;-75
2022/08/05 13:08:32;;;;;;;7.20;1.50;;;;;;;;;;5062961;28;20449;-76
2022/08/05 13:11:01;;;;;;;5.78;1.30;;;;;;;;;;5057848;28;20040;-75
2022/08/05 13:13:28;;;;;;;6.63;1.40;;;;;;;;;;5045568;28;20112;-74
2022/08/05 13:15:54;;;;;;;6.68;2.20;;;;;;;;;;5057007;28;20029;-77
2022/08/05 13:18:20;;;;;;;6.18;1.55;;;;;;;;;;5070279;28;20183;-76
2022/08/05 13:20:46;;;;;;;8.63;2.70;;;;;;;;;;5048732;28;20025;-74
2022/08/05 13:23:12;;;;;;;5.32;1.70;;;;;;;;;;5070261;28;20489;-77
2022/08/05 13:25:38;;;;;;;8.15;1.40;;;;;;;;;;5068315;28;20028;-77
2022/08/05 13:28:05;;;;;;;6.60;1.55;;;;;;;;;;5063424;28;20167;-79
2022/08/05 13:30:31;;;;;;;5.85;2.60;;;;;;;;;;5064190;28;20041;-77
2022/08/05 13:32:57;;;;;;;6.43;2.33;;;;;;;;;;5068138;28;20017;-74
2022/08/05 13:35:23;;;;;;;6.35;1.63;;;;;;;;;;5058296;28;20025;-76
2022/08/05 13:37:49;;;;;;;4.90;1.55;;;;;;;;;;5056844;28;20021;-76
2022/08/05 13:40:17;;;;;;;6.28;1.50;;;;;;;;;;5056901;28;20082;-76
2022/08/05 13:42:44;;;;;;;6.75;1.25;;;;;;;;;;5060065;28;20425;-75
2022/08/05 13:45:10;;;;;;;8.00;1.42;;;;;;;;;;5059514;28;20420;-77
2022/08/05 13:47:38;;;;;;;12.18;1.60;;;;;;;;;;5055574;28;20021;-76
2022/08/05 13:50:04;;;;;;;5.90;1.40;;;;;;;;;;5056259;28;20082;-77
2022/08/05 13:52:30;;;;;;;6.28;1.90;;;;;;;;;;5056376;28;20028;-76
2022/08/05 13:54:56;;;;;;;6.75;1.48;;;;;;;;;;5038532;28;20028;-76
2022/08/05 13:57:22;;;;;;;5.28;1.40;;;;;;;;;;5056918;28;20378;-76
2022/08/05 13:59:49;;;;;;;5.28;1.60;;;;;;;;;;5057633;28;20021;-77
2022/08/05 14:02:15;;;;;;;5.20;1.48;;;;;;;;;;5056305;28;20091;-76
2022/08/05 14:07:31;;;;;;;5.50;1.60;;;;;;;;;;5057157;28;20562;-76
2022/08/05 14:09:57;;;;;;;6.80;1.70;;;;;;;;;;5056581;28;20111;-76
2022/08/05 14:12:23;;;;;;;5.40;1.55;;;;;;;;;;5056220;28;20277;-77
2022/08/05 14:14:49;;;;;;;8.52;1.50;;;;;;;;;;5055634;28;20025;-75
2022/08/05 14:17:15;;;;;;;6.07;1.70;;;;;;;;;;5038767;28;20093;-77
2022/08/05 14:19:41;;;;;;;6.35;2.72;;;;;;;;;;5059752;28;20056;-76
2022/08/05 14:22:07;;;;;;;12.07;3.15;;;;;;;;;;5058444;28;20496;-76
2022/08/05 14:24:34;;;;;;;7.90;3.13;;;;;;;;;;5052154;28;20024;-75
2022/08/05 14:27:01;;;;;;;10.18;5.68;;;;;;;;;;5074443;28;20044;-78
2022/08/05 14:29:27;;;;;;;8.75;2.92;;;;;;;;;;5059437;28;20071;-76
2022/08/05 14:31:53;;;;;;;5.55;2.10;;;;;;;;;;5057822;28;20025;-77
2022/08/05 14:34:19;;;;;;;7.47;1.90;;;;;;;;;;5060701;28;20051;-76
2022/08/05 14:36:45;;;;;;;6.30;2.20;;;;;;;;;;5052453;28;20123;-76
2022/08/05 14:39:11;;;;;;;8.85;2.22;;;;;;;;;;5055560;28;20025;-77
2022/08/05 14:41:37;;;;;;;9.27;2.72;;;;;;;;;;5055891;28;20029;-77